createdAt,value
2023-04-03T00:02:33.304Z,0.75
2023-04-03T00:05:19.269Z,0.10
2023-04-03T00:08:05.785Z,0.20
2023-04-03T00:10:52.051Z,0.10
2023-04-03T00:13:39.417Z,0.10
2023-04-03T00:16:26.161Z,0.20
2023-04-03T00:19:13.211Z,0.10
2023-04-03T00:21:59.428Z,0.10
2023-04-03T00:24:45.407Z,0.10
2023-04-03T00:27:31.522Z,0.20
2023-04-03T00:30:20.291Z,0.38
2023-04-03T00:33:06.655Z,0.68
2023-04-03T00:35:53.679Z,0.85
2023-04-03T00:38:41.566Z,0.10
2023-04-03T00:41:27.398Z,0.68
2023-04-03T00:44:34.301Z,0.10
2023-04-03T00:47:21.015Z,0.20
2023-04-03T00:50:08.843Z,0.10
2023-04-03T00:52:56.513Z,0.10
2023-04-03T00:55:44.113Z,0.20
2023-04-03T00:58:38.514Z,0.10
2023-04-03T01:01:27.944Z,0.20
2023-04-03T01:04:34.238Z,0.20
2023-04-03T01:07:24.884Z,0.10
2023-04-03T01:10:15.436Z,0.25
2023-04-03T01:13:02.565Z,0.10
2023-04-03T01:15:48.608Z,0.40
2023-04-03T01:18:38.672Z,0.10
2023-04-03T01:21:32.317Z,0.40
2023-04-03T01:24:34.306Z,0.10
2023-04-03T01:27:21.944Z,0.15
2023-04-03T01:30:08.775Z,1.27
2023-04-03T01:32:56.202Z,0.20
2023-04-03T01:35:41.906Z,0.10
2023-04-03T01:38:28.041Z,0.20
2023-04-03T01:41:14.036Z,0.32
2023-04-03T01:44:00.438Z,0.10
2023-04-03T01:46:46.435Z,0.10
2023-04-03T01:49:32.838Z,0.32
2023-04-03T01:52:19.009Z,0.10
2023-04-03T01:55:05.774Z,0.50
2023-04-03T01:57:52.158Z,0.10
2023-04-03T02:00:38.534Z,0.17
2023-04-03T02:03:24.977Z,0.10
2023-04-03T02:06:12.792Z,0.20
2023-04-03T02:08:58.891Z,0.10
2023-04-03T02:11:44.971Z,0.20
2023-04-03T02:14:31.840Z,0.30
2023-04-03T02:17:18.172Z,0.73
2023-04-03T02:20:05.265Z,0.35
2023-04-03T02:22:52.880Z,0.30
2023-04-03T02:25:38.920Z,0.20
2023-04-03T02:28:25.208Z,0.10
2023-04-03T02:31:11.769Z,0.25
2023-04-03T02:33:59.785Z,0.10
2023-04-03T02:36:46.043Z,1.27
2023-04-03T02:39:33.796Z,0.20
2023-04-03T02:42:20.539Z,0.77
2023-04-03T02:45:07.446Z,0.63
2023-04-03T02:47:53.722Z,2.08
2023-04-03T02:50:40.100Z,0.10
2023-04-03T02:53:26.430Z,0.30
2023-04-03T02:56:12.857Z,5.05
2023-04-03T02:58:58.372Z,0.30
2023-04-03T03:01:45.729Z,0.47
2023-04-03T03:04:31.791Z,0.17
2023-04-03T03:07:17.558Z,1.05
2023-04-03T03:10:03.842Z,0.10
2023-04-03T03:12:50.643Z,0.30
2023-04-03T03:15:36.747Z,0.40
2023-04-03T03:18:23.448Z,0.43
2023-04-03T03:21:11.030Z,0.25
2023-04-03T03:23:57.289Z,0.30
2023-04-03T03:26:44.768Z,0.52
2023-04-03T03:29:31.937Z,0.57
2023-04-03T03:32:17.589Z,0.50
2023-04-03T03:35:04.385Z,0.30
2023-04-03T03:37:50.504Z,0.28
2023-04-03T03:40:36.975Z,0.20
2023-04-03T03:43:23.109Z,0.10
2023-04-03T03:46:10.986Z,0.40
2023-04-03T03:48:57.644Z,0.85
2023-04-03T03:51:43.882Z,0.63
2023-04-03T03:54:30.007Z,0.28
2023-04-03T03:57:16.591Z,0.40
2023-04-03T04:00:02.864Z,0.10
2023-04-03T04:02:50.755Z,0.10
2023-04-03T04:05:40.243Z,0.10
2023-04-03T04:08:26.987Z,0.20
2023-04-03T04:11:13.807Z,0.38
2023-04-03T04:14:00.942Z,0.25
2023-04-03T04:16:49.127Z,0.75
2023-04-03T04:19:40.166Z,0.10
2023-04-03T04:22:26.558Z,0.38
2023-04-03T04:25:13.502Z,0.30
2023-04-03T04:28:00.401Z,0.80
2023-04-03T04:30:46.527Z,0.40
2023-04-03T04:33:34.732Z,0.10
2023-04-03T04:36:23.743Z,0.10
2023-04-03T04:39:10.316Z,0.13
2023-04-03T04:41:56.409Z,0.10
2023-04-03T04:44:46.631Z,0.30
2023-04-03T04:47:34.163Z,0.10
2023-04-03T04:50:20.940Z,0.10
2023-04-03T04:53:07.301Z,0.10
2023-04-03T04:55:54.062Z,0.10
2023-04-03T04:58:40.487Z,0.15
2023-04-03T05:01:27.580Z,0.22
2023-04-03T05:04:25.911Z,0.50
2023-04-03T05:07:36.879Z,0.28
2023-04-03T05:10:24.679Z,0.55
2023-04-03T05:13:10.919Z,0.10
2023-04-03T05:15:56.442Z,0.47
2023-04-03T05:18:43.374Z,0.38
2023-04-03T05:21:39.012Z,0.10
2023-04-03T05:24:31.690Z,0.10
2023-04-03T05:27:18.290Z,0.20
2023-04-03T05:30:11.230Z,0.10
2023-04-03T05:33:06.198Z,0.30
2023-04-03T05:36:05.350Z,0.13
2023-04-03T05:38:57.416Z,1.00
2023-04-03T05:41:44.701Z,0.10
2023-04-03T05:44:31.549Z,0.30
2023-04-03T05:47:18.625Z,0.13
2023-04-03T05:50:05.693Z,0.20
2023-04-03T05:52:56.407Z,1.13
2023-04-03T05:55:42.780Z,0.10
2023-04-03T05:58:28.963Z,0.10
2023-04-03T06:01:17.343Z,0.10
2023-04-03T06:04:04.163Z,0.32
2023-04-03T06:06:53.291Z,0.10
2023-04-03T06:09:39.448Z,0.38
2023-04-03T06:12:25.798Z,2.28
2023-04-03T06:15:12.953Z,0.20
2023-04-03T06:18:00.293Z,0.43
2023-04-03T06:20:47.463Z,0.63
2023-04-03T06:23:34.120Z,0.10
2023-04-03T06:26:19.892Z,0.15
2023-04-03T06:32:07.434Z,0.95
2023-04-03T06:34:54.452Z,0.40
2023-04-03T06:37:40.868Z,0.98
2023-04-03T06:40:30.604Z,0.47
2023-04-03T06:43:16.730Z,1.10
2023-04-03T06:46:04.504Z,0.85
2023-04-03T06:48:55.055Z,1.00
2023-04-03T06:51:41.487Z,0.55
2023-04-03T06:54:28.072Z,0.75
2023-04-03T06:57:17.001Z,0.47
2023-04-03T07:00:08.520Z,0.60
2023-04-03T07:02:55.980Z,0.10
2023-04-03T07:05:44.009Z,0.30
2023-04-03T07:08:30.492Z,0.38
2023-04-03T07:11:19.883Z,1.70
2023-04-03T07:14:07.352Z,0.93
2023-04-03T07:16:57.013Z,0.10
2023-04-03T07:19:47.006Z,0.20
2023-04-03T07:22:37.974Z,0.70
2023-04-03T07:25:28.150Z,1.17
2023-04-03T07:31:59.406Z,2.97
2023-04-03T07:34:45.805Z,1.27
2023-04-03T07:37:54.297Z,1.17
2023-04-03T07:40:51.991Z,2.67
2023-04-03T07:43:58.177Z,0.50
2023-04-03T07:46:59.657Z,1.83
2023-04-03T07:49:45.658Z,1.20
2023-04-03T07:52:31.983Z,2.13
2023-04-03T07:55:18.109Z,0.38
2023-04-03T07:58:04.480Z,3.13
2023-04-03T08:00:50.927Z,1.98
2023-04-03T08:03:38.549Z,4.80
2023-04-03T08:06:37.390Z,3.22
2023-04-03T08:09:28.809Z,3.42
2023-04-03T08:12:15.943Z,2.65
2023-04-03T08:15:03.960Z,5.00
2023-04-03T08:17:52.640Z,4.68
2023-04-03T08:20:41.778Z,3.47
2023-04-03T08:23:31.711Z,2.00
2023-04-03T08:26:22.125Z,3.80
2023-04-03T08:29:08.342Z,2.90
2023-04-03T08:31:55.426Z,2.47
2023-04-03T08:34:54.575Z,3.22
2023-04-03T08:37:41.708Z,3.40
2023-04-03T08:40:28.507Z,5.57
2023-04-03T08:43:38.048Z,3.75
2023-04-03T08:46:37.654Z,3.13
2023-04-03T08:49:52.629Z,4.05
2023-04-03T08:53:07.890Z,3.00
2023-04-03T08:55:55.361Z,4.28
2023-04-03T08:58:53.084Z,2.10
2023-04-03T09:01:43.550Z,3.63
2023-04-03T09:04:34.102Z,4.57
2023-04-03T09:07:43.369Z,4.30
2023-04-03T09:10:33.584Z,3.20
2023-04-03T09:13:51.563Z,2.45
2023-04-03T09:16:37.826Z,3.35
2023-04-03T09:19:37.469Z,2.15
2023-04-03T09:22:26.756Z,3.00
2023-04-03T09:25:21.366Z,4.78
2023-04-03T09:28:13.568Z,3.63
2023-04-03T09:31:01.870Z,3.92
2023-04-03T09:33:53.243Z,4.00
2023-04-03T09:36:49.334Z,1.23
2023-04-03T09:39:54.622Z,1.88
2023-04-03T09:42:51.835Z,3.50
2023-04-03T09:45:43.205Z,2.45
2023-04-03T09:48:29.581Z,3.25
2023-04-03T09:51:17.728Z,2.90
2023-04-03T09:54:27.481Z,2.25
2023-04-03T09:57:15.370Z,2.40
2023-04-03T10:00:31.744Z,0.95
2023-04-03T10:03:36.708Z,0.88
2023-04-03T10:06:25.819Z,1.65
2023-04-03T10:09:30.513Z,2.70
2023-04-03T10:12:25.275Z,1.93
2023-04-03T10:15:18.579Z,2.53
2023-04-03T10:18:31.015Z,2.05
2023-04-03T10:21:27.716Z,2.58
2023-04-03T10:24:33.559Z,2.28
2023-04-03T10:27:47.058Z,3.08
2023-04-03T10:31:06.572Z,2.72
2023-04-03T10:34:07.849Z,3.00
2023-04-03T10:37:15.399Z,2.67
2023-04-03T10:40:37.706Z,1.92
2023-04-03T10:43:34.110Z,1.23
2023-04-03T10:46:25.701Z,2.30
2023-04-03T10:49:31.356Z,2.55
2023-04-03T10:52:41.854Z,1.50
2023-04-03T10:55:31.886Z,2.47
2023-04-03T10:58:44.381Z,2.67
2023-04-03T11:01:36.612Z,2.15
2023-04-03T11:04:25.578Z,1.50
2023-04-03T11:07:25.193Z,1.45
2023-04-03T11:10:39.250Z,2.00
2023-04-03T11:13:44.547Z,1.25
2023-04-03T11:16:50.996Z,0.95
2023-04-03T11:19:42.797Z,2.33
2023-04-03T11:22:43.115Z,3.53
2023-04-03T11:28:41.472Z,1.98
2023-04-03T11:31:34.397Z,2.10
2023-04-03T11:34:37.707Z,1.50
2023-04-03T11:37:37.710Z,2.50
2023-04-03T11:40:34.468Z,3.40
2023-04-03T11:43:32.672Z,3.58
2023-04-03T11:46:20.980Z,4.85
2023-04-03T11:49:46.778Z,3.78
2023-04-03T11:52:57.175Z,3.92
2023-04-03T11:55:46.143Z,3.65
2023-04-03T11:58:34.777Z,1.48
2023-04-03T12:02:00.415Z,2.75
2023-04-03T12:05:26.564Z,1.20
2023-04-03T12:08:34.513Z,1.38
2023-04-03T12:11:30.198Z,1.92
2023-04-03T12:14:24.092Z,1.90
2023-04-03T12:17:25.115Z,1.60
2023-04-03T12:20:53.465Z,1.13
2023-04-03T12:24:14.158Z,1.08
2023-04-03T12:27:02.293Z,0.63
2023-04-03T12:30:06.595Z,0.93
2023-04-03T12:33:20.945Z,1.00
2023-04-03T12:36:39.355Z,0.50
2023-04-03T12:40:02.563Z,0.82
2023-04-03T12:43:11.828Z,1.55
2023-04-03T12:46:24.461Z,1.75
2023-04-03T12:49:44.492Z,1.60
2023-04-03T12:52:51.558Z,0.30
2023-04-03T12:55:40.713Z,0.47
2023-04-03T12:58:32.611Z,0.10
2023-04-03T13:01:23.083Z,1.10
2023-04-03T13:04:18.323Z,1.27
2023-04-03T13:07:06.945Z,1.65
2023-04-03T13:10:09.855Z,1.20
2023-04-03T13:13:16.859Z,0.80
2023-04-03T13:16:22.126Z,1.02
2023-04-03T13:19:20.447Z,0.50
2023-04-03T13:22:11.217Z,0.80
2023-04-03T13:25:04.105Z,0.43
2023-04-03T13:31:09.602Z,1.55
2023-04-03T13:34:31.816Z,1.13
2023-04-03T13:37:29.661Z,0.60
2023-04-03T13:40:18.336Z,0.50
2023-04-03T13:43:25.011Z,1.00
2023-04-03T13:46:36.501Z,0.85
2023-04-03T13:49:38.553Z,1.80
2023-04-03T13:53:22.060Z,1.02
2023-04-03T13:56:32.087Z,0.95
2023-04-03T13:59:19.221Z,1.30
2023-04-03T14:02:08.760Z,1.65
2023-04-03T14:05:02.218Z,1.10
2023-04-03T14:07:48.888Z,0.80
2023-04-03T14:10:37.216Z,0.68
2023-04-03T14:13:24.434Z,1.27
2023-04-03T14:16:19.148Z,1.23
2023-04-03T14:19:06.865Z,1.70
2023-04-03T14:21:56.434Z,1.10
2023-04-03T14:24:45.343Z,2.80
2023-04-03T14:27:51.582Z,3.00
2023-04-03T14:30:39.152Z,1.45
2023-04-03T14:33:28.499Z,1.70
2023-04-03T14:36:22.927Z,2.38
2023-04-03T14:39:20.602Z,1.20
2023-04-03T14:45:51.910Z,1.95
2023-04-03T14:48:37.896Z,1.83
2023-04-03T14:51:23.784Z,2.65
2023-04-03T14:54:17.005Z,1.88
2023-04-03T14:57:13.051Z,0.63
2023-04-03T15:00:02.250Z,1.42
2023-04-03T15:02:55.252Z,1.33
2023-04-03T15:05:42.192Z,3.15
2023-04-03T15:08:30.751Z,2.20
2023-04-03T15:11:17.739Z,2.40
2023-04-03T15:14:03.855Z,1.90
2023-04-03T15:16:53.594Z,1.23
2023-04-03T15:19:42.512Z,1.00
2023-04-03T15:22:28.489Z,2.00
2023-04-03T15:25:14.579Z,1.00
2023-04-03T15:28:04.142Z,2.42
2023-04-03T15:30:52.873Z,1.30
2023-04-03T15:33:40.981Z,1.63
2023-04-03T15:36:34.052Z,2.30
2023-04-03T15:39:24.367Z,1.40
2023-04-03T15:42:10.816Z,1.08
2023-04-03T15:44:57.865Z,1.33
2023-04-03T15:47:44.940Z,1.08
2023-04-03T15:50:31.414Z,0.88
2023-04-03T15:56:31.792Z,1.23
2023-04-03T15:59:21.934Z,1.40
2023-04-03T16:02:11.562Z,0.80
2023-04-03T16:11:20.464Z,1.70
2023-04-03T16:14:35.799Z,1.05
2023-04-03T16:17:38.068Z,1.33
2023-04-03T16:20:29.074Z,1.05
2023-04-03T16:23:15.688Z,0.65
2023-04-03T16:27:28.733Z,0.90
2023-04-03T16:29:53.918Z,0.68
2023-04-03T16:32:41.893Z,1.77
2023-04-03T16:35:39.220Z,1.10
2023-04-03T16:38:27.212Z,0.95
2023-04-03T16:41:13.002Z,0.98
2023-04-03T16:44:02.110Z,0.85
2023-04-03T16:46:48.594Z,1.55
2023-04-03T16:49:36.490Z,0.88
2023-04-03T16:52:33.356Z,0.70
2023-04-03T16:55:20.098Z,1.38
2023-04-03T16:58:14.180Z,1.15
2023-04-03T17:01:00.325Z,1.45
2023-04-03T17:03:46.982Z,0.60
2023-04-03T17:09:54.964Z,1.05
2023-04-03T17:12:44.670Z,0.85
2023-04-03T17:15:31.114Z,0.93
2023-04-03T17:18:17.836Z,0.65
2023-04-03T17:21:05.442Z,1.25
2023-04-03T17:24:01.487Z,1.40
2023-04-03T17:26:48.627Z,1.42
2023-04-03T17:29:44.759Z,1.00
2023-04-03T17:32:31.654Z,1.10
2023-04-03T17:35:17.732Z,0.73
2023-04-03T17:38:05.003Z,0.68
2023-04-03T17:40:51.430Z,0.68
2023-04-03T17:43:39.657Z,1.30
2023-04-03T17:49:40.767Z,0.98
2023-04-03T17:52:38.953Z,1.63
2023-04-03T18:18:26.131Z,1.10
2023-04-03T18:21:25.590Z,1.08
2023-04-03T18:24:18.634Z,0.85
2023-04-03T18:27:13.012Z,0.98
2023-04-03T18:30:03.820Z,2.63
2023-04-03T18:33:02.226Z,0.63
2023-04-03T18:35:53.696Z,1.67
2023-04-03T18:38:40.621Z,0.73
2023-04-03T18:41:34.154Z,0.63
2023-04-03T18:44:26.804Z,0.20
2023-04-03T18:47:27.023Z,0.40
2023-04-03T18:50:14.309Z,0.65
2023-04-03T18:53:00.417Z,0.93
2023-04-03T18:55:46.859Z,0.82
2023-04-03T18:58:33.725Z,0.40
2023-04-03T19:01:20.201Z,0.47
2023-04-03T19:04:08.526Z,0.40
2023-04-03T19:06:55.269Z,1.15
2023-04-03T19:09:41.999Z,0.43
2023-04-03T19:12:30.093Z,0.82
2023-04-03T19:15:18.004Z,0.40
2023-04-03T19:18:04.461Z,0.80
2023-04-03T19:20:50.715Z,1.23
2023-04-03T19:23:36.990Z,0.32
2023-04-03T19:26:23.422Z,1.13
2023-04-03T19:29:10.044Z,1.45
2023-04-03T19:31:56.260Z,0.10
2023-04-03T19:34:42.370Z,1.38
2023-04-03T19:37:28.980Z,0.23
2023-04-03T19:40:15.723Z,1.20
2023-04-03T19:43:05.681Z,0.52
2023-04-03T19:45:52.883Z,1.08
2023-04-03T19:48:39.397Z,0.87
2023-04-03T19:51:26.044Z,0.40
2023-04-03T19:54:12.877Z,1.25
2023-04-03T19:57:00.548Z,0.20
2023-04-03T20:00:02.325Z,0.90
2023-04-03T20:02:56.962Z,1.58
2023-04-03T20:05:43.200Z,1.70
2023-04-03T20:08:30.212Z,0.90
2023-04-03T20:11:27.017Z,0.80
2023-04-03T20:14:16.864Z,1.23
2023-04-03T20:17:09.067Z,0.75
2023-04-03T20:20:01.845Z,0.30
2023-04-03T20:22:48.259Z,0.10
2023-04-03T20:25:48.076Z,0.57
2023-04-03T20:28:41.905Z,1.60
2023-04-03T20:31:29.982Z,0.77
2023-04-03T20:34:16.541Z,0.85
2023-04-03T20:37:02.954Z,0.75
2023-04-03T20:39:49.580Z,0.82
2023-04-03T20:42:35.577Z,0.95
2023-04-03T20:45:22.810Z,1.30
2023-04-03T20:48:13.473Z,1.42
2023-04-03T20:51:08.276Z,1.10
2023-04-03T20:53:55.448Z,2.17
2023-04-03T20:56:41.454Z,1.05
2023-04-03T20:59:29.450Z,0.60
2023-04-03T21:02:17.076Z,1.48
2023-04-03T21:05:04.208Z,0.10
2023-04-03T21:08:28.918Z,0.10
2023-04-03T21:12:02.753Z,2.42
2023-04-03T21:15:27.686Z,1.55
2023-04-03T21:18:33.091Z,0.50
2023-04-03T21:21:23.553Z,1.08
2023-04-03T21:24:11.321Z,0.70
2023-04-03T21:26:57.805Z,0.93
2023-04-03T21:29:45.453Z,2.30
2023-04-03T21:32:32.107Z,3.88
2023-04-03T21:35:18.634Z,0.63
2023-04-03T21:38:05.218Z,1.02
2023-04-03T21:40:52.431Z,0.47
2023-04-03T21:43:51.802Z,1.10
2023-04-03T21:46:38.348Z,1.48
2023-04-03T21:49:26.137Z,0.40
2023-04-03T21:52:15.629Z,0.32
2023-04-03T21:55:02.267Z,1.45
2023-04-03T21:57:57.237Z,0.80
2023-04-03T22:00:43.723Z,0.90
2023-04-03T22:03:32.027Z,1.35
2023-04-03T22:06:18.362Z,0.20
2023-04-03T22:09:04.739Z,0.68
2023-04-03T22:11:55.852Z,0.70
2023-04-03T22:14:42.666Z,0.98
2023-04-03T22:17:33.222Z,0.82
2023-04-03T22:20:19.912Z,1.95
2023-04-03T22:23:07.590Z,0.93
2023-04-03T22:26:11.590Z,0.50
2023-04-03T22:28:58.351Z,1.40
2023-04-03T22:31:44.754Z,0.45
2023-04-03T22:34:31.620Z,0.50
2023-04-03T22:37:18.909Z,0.57
2023-04-03T22:40:05.146Z,0.60
2023-04-03T22:42:51.146Z,1.95
2023-04-03T22:45:50.591Z,0.45
2023-04-03T22:48:38.697Z,0.10
2023-04-03T22:51:25.384Z,1.00
2023-04-03T22:54:12.083Z,0.70
2023-04-03T22:56:58.429Z,0.90
2023-04-03T22:59:44.684Z,2.20
2023-04-03T23:02:33.151Z,1.17
2023-04-03T23:05:22.055Z,0.85
2023-04-03T23:08:09.657Z,1.83
2023-04-03T23:10:57.644Z,0.88
2023-04-03T23:13:44.170Z,1.15
2023-04-03T23:16:30.495Z,0.20
2023-04-03T23:19:17.276Z,0.28
2023-04-03T23:22:04.342Z,1.10
2023-04-03T23:24:51.514Z,0.65
2023-04-03T23:27:51.906Z,0.80
2023-04-03T23:30:38.487Z,1.38
2023-04-03T23:33:25.491Z,0.55
2023-04-03T23:36:17.272Z,1.60
2023-04-03T23:39:11.923Z,0.95
2023-04-03T23:41:58.939Z,1.38
2023-04-03T23:44:45.522Z,1.27
2023-04-03T23:47:37.373Z,1.52
2023-04-03T23:50:24.166Z,1.30
2023-04-03T23:53:20.081Z,1.03
2023-04-03T23:59:12.190Z,0.90
